Time;durP1;ratioP1;P1;durP2;ratioP2;P2;SDS_P1;SDS_P2;PMS_P1;PMS_P2;Temp;Humidity;BMP_temperature;BMP_pressure;BME280_temperature;BME280_humidity;BME280_pressure;Samples;Min_cycle;Max_cycle;Signal;HPM_P1;HPM_P2
2022/01/07 00:00:23;;;;;;;9.50;4.05;;;;;;;11.96;69.10;100964.66;1835316;78;21149;-61
2022/01/07 00:02:54;;;;;;;7.53;3.87;;;;;;;11.90;69.16;100967.56;1835583;78;21103;-60
2022/01/07 00:05:24;;;;;;;6.05;3.27;;;;;;;11.83;69.22;100963.42;1835510;78;21032;-60
2022/01/07 00:07:53;;;;;;;11.57;5.25;;;;;;;11.88;69.16;100964.11;1835526;78;21118;-60
2022/01/07 00:10:23;;;;;;;4.33;3.05;;;;;;;11.91;69.10;100961.35;1835393;78;21141;-60
2022/01/07 00:12:52;;;;;;;8.55;4.35;;;;;;;12.03;68.66;100952.56;1835420;78;21159;-59
2022/01/07 00:15:22;;;;;;;5.72;3.58;;;;;;;12.11;68.25;100961.00;1835410;78;21558;-58
2022/01/07 00:17:51;;;;;;;10.70;3.90;;;;;;;12.25;67.42;100959.97;1855358;76;21149;-59
2022/01/07 00:20:20;;;;;;;7.75;3.58;;;;;;;12.39;67.27;100942.19;1858334;77;21528;-60
2022/01/07 00:22:50;;;;;;;8.28;4.35;;;;;;;12.50;66.53;100957.11;1858262;77;21147;-60
2022/01/07 00:25:20;;;;;;;7.22;3.85;;;;;;;12.52;66.71;100968.92;1858224;76;21484;-59
2022/01/07 00:27:50;;;;;;;8.65;3.30;;;;;;;12.48;66.57;100960.75;1858254;77;21075;-60
2022/01/07 00:30:20;;;;;;;9.55;3.20;;;;;;;12.43;66.58;100961.41;1858212;77;21413;-59
2022/01/07 00:32:49;;;;;;;6.58;3.67;;;;;;;12.39;66.73;100962.00;1858358;77;21047;-60
2022/01/07 00:35:20;;;;;;;5.60;3.05;;;;;;;12.36;66.64;100974.88;1858244;77;21042;-60
2022/01/07 00:37:50;;;;;;;7.87;3.30;;;;;;;12.38;66.47;100967.38;1858330;76;21087;-60
2022/01/07 00:40:22;;;;;;;8.15;3.02;;;;;;;12.41;66.44;100960.62;1848763;77;21127;-60
2022/01/07 00:42:51;;;;;;;23.22;4.67;;;;;;;12.43;66.46;100972.84;1818366;79;21059;-60
2022/01/07 00:45:22;;;;;;;9.30;3.30;;;;;;;12.45;66.08;100962.19;1818392;78;21502;-60
2022/01/07 00:47:52;;;;;;;6.75;3.47;;;;;;;12.47;66.11;100969.62;1818348;79;21572;-61
2022/01/07 00:50:22;;;;;;;5.30;2.72;;;;;;;12.50;66.16;100982.67;1818463;79;21060;-61
2022/01/07 00:52:51;;;;;;;11.05;3.72;;;;;;;12.52;66.12;100976.85;1818307;79;21663;-61
2022/01/07 00:55:20;;;;;;;7.58;4.53;;;;;;;12.47;66.25;100979.70;1818346;79;21628;-61
2022/01/07 00:57:49;;;;;;;7.78;3.65;;;;;;;12.45;66.37;100979.36;1818360;78;21068;-60
2022/01/07 01:00:21;;;;;;;9.70;3.35;;;;;;;12.41;66.39;100964.11;1818434;79;21157;-60
2022/01/07 01:02:50;;;;;;;8.03;3.40;;;;;;;12.39;66.50;100979.16;1818354;79;21121;-60
2022/01/07 01:05:18;;;;;;;7.03;3.98;;;;;;;12.41;66.51;100985.70;1818246;79;21089;-60
2022/01/07 01:07:47;;;;;;;6.28;3.02;;;;;;;12.40;66.37;100981.36;1818519;79;21525;-61
2022/01/07 01:10:19;;;;;;;4.42;2.70;;;;;;;12.42;66.08;100968.95;1818518;79;21071;-60
2022/01/07 01:12:49;;;;;;;11.20;3.12;;;;;;;12.46;65.82;100965.24;1818439;79;21518;-60
2022/01/07 01:15:22;;;;;;;5.78;3.35;;;;;;;12.46;65.80;100968.73;1818344;78;21402;-61
2022/01/07 01:17:55;;;;;;;7.37;2.98;;;;;;;12.46;65.82;100965.24;1818223;78;21151;-61
2022/01/07 01:20:25;;;;;;;5.55;2.37;;;;;;;12.51;65.64;100966.76;1818467;79;21106;-61
2022/01/07 01:22:54;;;;;;;7.33;3.60;;;;;;;12.52;65.61;100957.92;1818294;79;21581;-60
2022/01/07 01:25:23;;;;;;;4.62;2.08;;;;;;;12.51;65.41;100954.02;1818472;79;21043;-60
2022/01/07 01:27:52;;;;;;;5.67;3.45;;;;;;;12.53;65.31;100961.41;1818361;79;21190;-61
2022/01/07 01:30:21;;;;;;;6.42;3.08;;;;;;;12.48;65.29;100946.23;1818255;79;21474;-61
2022/01/07 01:35:41;;;;;;;6.87;3.47;;;;;;;12.41;65.42;100960.62;1789156;80;21568;-60
2022/01/07 01:38:09;;;;;;;9.13;3.85;;;;;;;12.32;65.57;100968.02;1789136;80;21394;-60
2022/01/07 01:40:38;;;;;;;5.45;3.40;;;;;;;12.25;65.73;100971.84;1789657;80;21038;-60
2022/01/07 01:43:07;;;;;;;7.05;3.25;;;;;;;12.16;65.93;100974.88;1791025;80;21505;-60
2022/01/07 01:45:35;;;;;;;6.45;3.55;;;;;;;12.12;66.04;100970.65;1790864;80;21069;-61
2022/01/07 01:48:05;;;;;;;6.30;3.20;;;;;;;12.08;66.07;100976.95;1791021;80;21074;-60
2022/01/07 01:50:33;;;;;;;8.78;3.12;;;;;;;12.06;66.06;100978.36;1790860;80;21089;-60
2022/01/07 01:53:02;;;;;;;6.30;3.25;;;;;;;12.10;65.79;100976.45;1790745;80;21151;-63
2022/01/07 01:55:31;;;;;;;5.87;2.70;;;;;;;12.14;65.55;100968.80;1790845;80;21136;-61
2022/01/07 01:58:00;;;;;;;8.88;3.47;;;;;;;12.15;65.52;100974.45;1790839;80;21093;-61
2022/01/07 02:00:29;;;;;;;10.23;4.00;;;;;;;12.20;65.29;100977.77;1791048;80;21555;-61
2022/01/07 02:02:58;;;;;;;6.28;2.22;;;;;;;12.26;64.91;100984.10;1790879;80;21085;-61
2022/01/07 02:05:29;;;;;;;7.85;3.08;;;;;;;12.36;64.56;100973.56;1791128;80;21492;-60
2022/01/07 02:07:58;;;;;;;4.55;2.95;;;;;;;12.46;64.13;100971.38;1790871;80;21131;-60
2022/01/07 02:10:28;;;;;;;10.50;3.22;;;;;;;12.55;64.12;100988.62;1790921;80;21141;-60
2022/01/07 02:12:57;;;;;;;6.97;2.22;;;;;;;12.57;64.38;100977.52;1790861;80;21472;-60
2022/01/07 02:15:25;;;;;;;5.10;2.65;;;;;;;12.55;64.73;100987.30;1790826;80;21597;-63
2022/01/07 02:17:54;;;;;;;5.33;3.12;;;;;;;12.53;65.33;100987.83;1790804;80;21097;-61
2022/01/07 02:20:25;;;;;;;4.70;2.02;;;;;;;12.48;65.66;100994.61;1790781;80;21155;-62
2022/01/07 02:22:54;;;;;;;7.90;1.90;;;;;;;12.44;66.15;100998.79;1790835;80;21186;-61
2022/01/07 02:25:24;;;;;;;7.08;2.65;;;;;;;12.44;66.33;100997.00;1790866;80;21105;-61
2022/01/07 02:27:53;;;;;;;9.38;4.17;;;;;;;12.39;66.44;101001.61;1790952;80;21069;-61
2022/01/07 02:30:28;;;;;;;3.65;2.25;;;;;;;12.35;66.93;100996.92;1790810;80;21073;-60
2022/01/07 02:32:58;;;;;;;7.10;2.90;;;;;;;12.35;67.06;100996.92;1790880;80;21153;-61
2022/01/07 02:35:32;;;;;;;5.10;3.40;;;;;;;12.35;67.29;101010.59;1789100;79;21516;-60
2022/01/07 02:38:02;;;;;;;6.90;2.80;;;;;;;12.29;67.33;101016.98;1788906;80;21168;-60
2022/01/07 02:40:30;;;;;;;7.20;3.55;;;;;;;12.23;67.47;101019.89;1792530;80;21104;-60
2022/01/07 02:42:59;;;;;;;5.70;2.62;;;;;;;12.19;67.64;101036.79;1800340;80;21065;-61
2022/01/07 02:45:28;;;;;;;7.50;3.45;;;;;;;12.16;68.05;101036.44;1800421;80;21654;-61
2022/01/07 02:47:58;;;;;;;6.75;2.80;;;;;;;12.15;68.36;101032.53;1800578;80;21543;-62
2022/01/07 02:50:35;;;;;;;6.55;2.50;;;;;;;12.11;68.60;101050.27;1800501;80;21061;-60
2022/01/07 02:53:07;;;;;;;4.58;1.87;;;;;;;12.13;68.99;101015.91;1800511;80;21603;-61
2022/01/07 02:55:37;;;;;;;10.53;2.77;;;;;;;12.10;68.69;101025.29;1800461;80;21090;-62
2022/01/07 02:58:06;;;;;;;11.22;3.45;;;;;;;12.07;69.00;101029.36;1800396;80;21166;-61
2022/01/07 03:00:35;;;;;;;6.05;2.80;;;;;;;12.05;69.49;101017.55;1800458;80;21515;-61
2022/01/07 03:03:06;;;;;;;5.00;2.98;;;;;;;12.04;69.57;101017.59;1800398;80;21646;-59
2022/01/07 03:05:35;;;;;;;3.83;2.75;;;;;;;12.01;69.83;101032.23;1800629;80;21617;-60
2022/01/07 03:08:04;;;;;;;8.93;3.58;;;;;;;11.99;69.86;101011.20;1800389;80;21646;-60
2022/01/07 03:10:33;;;;;;;9.50;3.40;;;;;;;11.96;70.16;101020.08;1800360;80;21198;-61
2022/01/07 03:13:04;;;;;;;6.42;3.45;;;;;;;11.94;70.14;101039.08;1803472;79;21081;-60
2022/01/07 03:15:36;;;;;;;8.15;3.45;;;;;;;11.91;70.26;101044.47;1805903;79;21127;-60
2022/01/07 03:18:07;;;;;;;7.97;4.20;;;;;;;11.89;70.29;101054.67;1801363;79;21119;-61
2022/01/07 03:20:40;;;;;;;5.65;3.45;;;;;;;11.85;70.56;101056.56;1799800;80;21049;-61
2022/01/07 03:23:12;;;;;;;8.03;3.52;;;;;;;11.83;70.63;101059.73;1800511;80;21096;-61
2022/01/07 03:25:44;;;;;;;8.00;3.20;;;;;;;11.79;70.65;101062.09;1800380;80;21621;-61
2022/01/07 03:28:13;;;;;;;7.42;3.72;;;;;;;11.74;70.66;101060.09;1795398;80;21093;-62
2022/01/07 03:30:44;;;;;;;6.67;3.12;;;;;;;11.74;71.23;101050.85;1791701;80;21138;-61
2022/01/07 03:33:12;;;;;;;11.25;4.60;;;;;;;11.74;71.34;101046.89;1791755;80;21164;-61
2022/01/07 03:35:42;;;;;;;8.35;3.98;;;;;;;11.72;71.26;101057.97;1782294;80;21110;-60
2022/01/07 03:38:11;;;;;;;10.53;3.45;;;;;;;11.68;71.42;101058.55;1769742;80;21078;-61
2022/01/07 03:40:40;;;;;;;8.88;3.08;;;;;;;11.66;71.65;101024.78;1769731;81;21199;-61
2022/01/07 03:43:09;;;;;;;14.47;4.30;;;;;;;11.68;71.79;101051.10;1770925;80;21496;-61
2022/01/07 03:45:38;;;;;;;9.35;2.60;;;;;;;11.66;71.87;101052.48;1769816;81;21140;-62
2022/01/07 03:48:07;;;;;;;14.00;4.30;;;;;;;11.65;71.82;101063.93;1769619;81;21939;-62
2022/01/07 03:50:36;;;;;;;7.45;3.83;;;;;;;11.62;71.96;101059.23;1786239;80;21105;-62
2022/01/07 03:53:05;;;;;;;12.00;4.00;;;;;;;11.63;72.20;101076.79;1788934;80;21142;-61
2022/01/07 03:55:34;;;;;;;6.22;3.15;;;;;;;11.58;72.04;101092.34;1789050;80;21157;-61
2022/01/07 03:58:04;;;;;;;11.48;3.27;;;;;;;11.55;72.15;101079.25;1788994;80;21090;-61
2022/01/07 04:00:36;;;;;;;12.73;4.60;;;;;;;11.53;72.23;101087.69;1787349;80;21223;-61
2022/01/07 04:03:10;;;;;;;8.53;3.85;;;;;;;11.49;72.56;101095.31;1789043;80;21034;-61
2022/01/07 04:05:38;;;;;;;7.55;3.72;;;;;;;11.51;73.08;101098.75;1788991;80;21127;-60
2022/01/07 04:08:08;;;;;;;8.83;3.85;;;;;;;11.52;72.96;101103.09;1789078;80;21139;-60
2022/01/07 04:10:38;;;;;;;11.90;4.40;;;;;;;11.49;72.69;101103.23;1788925;80;21081;-60
2022/01/07 04:13:07;;;;;;;6.65;3.15;;;;;;;11.47;72.56;101118.69;1789136;80;21105;-61
2022/01/07 04:15:36;;;;;;;7.78;4.60;;;;;;;11.43;72.88;101119.25;1789533;80;21472;-61
2022/01/07 04:18:05;;;;;;;8.83;5.78;;;;;;;11.40;72.76;101127.30;1789511;80;21507;-61
2022/01/07 04:20:36;;;;;;;9.90;6.55;;;;;;;11.34;72.62;101128.38;1789474;80;21460;-61
2022/01/07 04:23:07;;;;;;;10.50;6.45;;;;;;;11.27;72.55;101125.99;1778929;80;21449;-61
2022/01/07 04:25:36;;;;;;;11.10;5.65;;;;;;;11.22;72.72;101121.37;1769809;81;21199;-61
2022/01/07 04:28:07;;;;;;;11.00;4.28;;;;;;;11.22;73.01;101122.22;1769711;81;21583;-61
2022/01/07 04:30:38;;;;;;;9.70;4.42;;;;;;;11.22;73.15;101131.45;1769799;81;21147;-61
2022/01/07 04:33:10;;;;;;;9.45;4.35;;;;;;;11.22;73.29;101137.19;1769704;81;21063;-60
2022/01/07 04:35:38;;;;;;;6.67;3.45;;;;;;;11.19;73.60;101141.66;1771742;80;21077;-62
2022/01/07 04:38:08;;;;;;;5.72;3.05;;;;;;;11.20;74.17;101138.08;1795510;80;21066;-60
2022/01/07 04:40:37;;;;;;;8.65;3.40;;;;;;;11.20;74.23;101127.54;1799923;80;21055;-60
2022/01/07 04:43:07;;;;;;;7.87;4.05;;;;;;;11.22;74.45;101153.84;1799821;80;21192;-60
2022/01/07 04:45:36;;;;;;;11.93;3.75;;;;;;;11.22;74.50;101149.05;1799813;80;21074;-61
2022/01/07 04:48:06;;;;;;;12.00;4.45;;;;;;;11.20;74.30;101145.14;1794106;80;21172;-61
2022/01/07 04:50:35;;;;;;;9.63;4.40;;;;;;;11.17;74.95;101152.67;1788884;80;21107;-61
2022/01/07 04:53:04;;;;;;;8.55;4.30;;;;;;;11.16;74.84;101149.66;1788900;80;21186;-60
2022/01/07 04:55:39;;;;;;;13.45;4.78;;;;;;;11.14;75.00;101154.56;1788936;80;21570;-61
2022/01/07 04:58:08;;;;;;;6.40;3.80;;;;;;;11.12;74.98;101158.59;1788624;80;21600;-61
2022/01/07 05:00:38;;;;;;;11.08;4.35;;;;;;;11.10;75.23;101162.17;1788450;80;21082;-61
2022/01/07 05:03:06;;;;;;;11.57;4.25;;;;;;;11.09;75.27;101169.23;1788279;80;21062;-60
2022/01/07 05:05:35;;;;;;;7.45;3.83;;;;;;;11.09;75.68;101171.86;1788383;80;21617;-61
2022/01/07 05:08:05;;;;;;;14.70;5.37;;;;;;;11.07;75.55;101175.02;1788367;80;21148;-62
2022/01/07 05:10:34;;;;;;;10.28;4.55;;;;;;;11.05;75.49;101176.84;1788627;80;21069;-60
2022/01/07 05:13:03;;;;;;;10.98;4.40;;;;;;;11.04;75.30;101179.52;1788503;80;21074;-61
2022/01/07 05:15:32;;;;;;;12.35;4.30;;;;;;;11.01;75.55;101176.52;1788259;80;21085;-61
2022/01/07 05:18:00;;;;;;;15.25;5.92;;;;;;;10.99;75.42;101178.34;1788364;80;21065;-61
2022/01/07 05:20:29;;;;;;;11.65;4.80;;;;;;;10.97;75.77;101178.42;1788347;80;21146;-60
2022/01/07 05:22:58;;;;;;;11.60;3.87;;;;;;;10.97;75.70;101191.59;1788210;80;21070;-61
2022/01/07 05:25:27;;;;;;;11.10;4.35;;;;;;;10.99;75.72;101183.61;1788110;79;21067;-61
2022/01/07 05:27:56;;;;;;;15.13;6.10;;;;;;;11.01;75.78;101185.30;1787995;80;21563;-61
2022/01/07 05:30:24;;;;;;;10.23;4.10;;;;;;;11.06;75.71;101186.45;1788553;80;21063;-61
2022/01/07 05:32:53;;;;;;;10.50;4.60;;;;;;;11.12;75.60;101194.17;1788969;80;21123;-61
2022/01/07 05:35:25;;;;;;;12.33;4.92;;;;;;;11.30;75.43;101194.44;1788704;80;21454;-60
2022/01/07 05:37:53;;;;;;;13.62;6.20;;;;;;;11.50;75.11;101199.86;1810165;79;21101;-61
2022/01/07 05:40:22;;;;;;;17.65;5.47;;;;;;;11.74;74.78;101199.91;1819360;79;21504;-60
2022/01/07 05:42:51;;;;;;;20.48;4.75;;;;;;;12.00;74.40;101203.39;1819652;79;21128;-61
2022/01/07 05:45:19;;;;;;;12.75;5.15;;;;;;;12.21;73.85;101199.95;1814999;79;21062;-61
2022/01/07 05:47:48;;;;;;;12.68;5.15;;;;;;;12.43;73.30;101193.37;1813076;79;21086;-61
2022/01/07 05:50:17;;;;;;;16.05;6.17;;;;;;;12.63;72.78;101231.32;1813080;79;21164;-60
2022/01/07 05:52:45;;;;;;;13.00;5.60;;;;;;;12.90;72.19;101244.74;1813109;79;21073;-60
2022/01/07 05:55:14;;;;;;;19.75;5.97;;;;;;;13.33;71.55;101275.19;1806551;79;21125;-61
2022/01/07 05:57:43;;;;;;;13.45;6.17;;;;;;;13.78;71.11;101279.92;1813060;79;21149;-62
2022/01/07 06:00:12;;;;;;;15.70;6.17;;;;;;;14.05;71.05;101287.08;1813082;79;21061;-62
2022/01/07 06:02:41;;;;;;;9.75;5.35;;;;;;;14.50;70.67;101295.19;1813207;79;21065;-63
2022/01/07 06:05:11;;;;;;;17.82;5.87;;;;;;;14.56;70.49;101300.20;1810179;78;21196;-62
2022/01/07 06:07:42;;;;;;;11.83;4.85;;;;;;;14.36;70.38;101311.71;1812971;79;21074;-62
2022/01/07 06:10:11;;;;;;;11.68;5.10;;;;;;;14.09;70.18;101313.81;1813180;79;21069;-62
2022/01/07 06:12:40;;;;;;;16.73;6.65;;;;;;;13.81;70.11;101316.34;1813019;79;21078;-62
2022/01/07 06:15:10;;;;;;;13.28;6.60;;;;;;;13.57;70.29;101320.05;1813080;79;21061;-63
2022/01/07 06:17:39;;;;;;;16.45;6.42;;;;;;;13.39;70.60;101330.50;1810138;79;21476;-66
2022/01/07 06:20:09;;;;;;;15.08;5.83;;;;;;;13.22;70.81;101328.95;1812905;79;21090;-65
2022/01/07 06:22:39;;;;;;;14.80;6.20;;;;;;;13.11;70.98;101333.35;1813127;79;21109;-64
2022/01/07 06:25:09;;;;;;;15.30;6.12;;;;;;;13.01;71.17;101332.87;1813075;79;21128;-64
2022/01/07 06:27:38;;;;;;;12.95;6.08;;;;;;;12.92;71.29;101334.08;1810276;79;21129;-64
2022/01/07 06:30:08;;;;;;;12.60;5.87;;;;;;;12.85;71.44;101333.06;1813076;79;21128;-64
2022/01/07 06:32:38;;;;;;;18.23;5.72;;;;;;;12.81;71.56;101339.40;1812913;79;21062;-64
2022/01/07 06:35:09;;;;;;;14.18;6.47;;;;;;;12.80;71.64;101341.63;1813051;79;21062;-64
2022/01/07 06:37:39;;;;;;;20.57;7.55;;;;;;;12.79;71.66;101341.25;1815459;79;21098;-64
2022/01/07 06:40:09;;;;;;;16.62;6.42;;;;;;;12.80;71.73;101342.95;1821354;79;21172;-64
2022/01/07 06:42:38;;;;;;;18.00;7.15;;;;;;;12.81;71.74;101344.22;1787856;79;21072;-65
2022/01/07 06:45:09;;;;;;;20.92;6.95;;;;;;;12.81;71.78;101342.05;1817651;79;21096;-61
2022/01/07 06:47:38;;;;;;;29.42;11.12;;;;;;;12.79;71.72;101349.17;1820749;79;21066;-61
2022/01/07 06:50:10;;;;;;;36.13;12.85;;;;;;;12.62;71.44;101362.56;1769120;81;21206;-61
2022/01/07 06:52:40;;;;;;;40.20;13.75;;;;;;;12.36;71.20;101368.34;1809362;79;21097;-64
2022/01/07 06:55:10;;;;;;;42.23;14.30;;;;;;;11.93;71.48;101371.64;1812771;79;21042;-64
2022/01/07 06:57:39;;;;;;;39.95;13.15;;;;;;;11.69;71.85;101374.62;1812656;79;21144;-65
2022/01/07 07:00:09;;;;;;;42.00;14.18;;;;;;;11.48;71.94;101381.02;1809280;79;21135;-63
2022/01/07 07:02:38;;;;;;;21.80;8.38;;;;;;;11.23;72.34;101382.72;1790514;79;21112;-64
2022/01/07 07:05:07;;;;;;;36.85;14.05;;;;;;;11.07;72.77;101385.84;1807864;79;21089;-66
2022/01/07 07:07:36;;;;;;;43.42;14.63;;;;;;;10.93;72.79;101386.70;1807773;79;21234;-66
2022/01/07 07:10:05;;;;;;;45.78;13.25;;;;;;;10.90;72.76;101397.33;1805813;79;21188;-67
2022/01/07 07:12:34;;;;;;;36.13;14.70;;;;;;;10.85;72.67;101393.99;1756478;79;21061;-61
2022/01/07 07:15:04;;;;;;;41.20;13.90;;;;;;;10.83;72.62;101394.03;1776264;79;21118;-62
2022/01/07 07:17:32;;;;;;;32.63;14.73;;;;;;;10.81;72.70;101401.12;1769571;81;21581;-59
2022/01/07 07:20:03;;;;;;;32.60;12.78;;;;;;;10.78;72.70;101394.61;1807451;79;21172;-59
2022/01/07 07:22:32;;;;;;;41.15;14.93;;;;;;;10.77;72.61;101399.46;1807694;79;21081;-60
2022/01/07 07:25:00;;;;;;;36.10;14.20;;;;;;;10.73;72.49;101399.15;1807620;79;21232;-60
2022/01/07 07:27:29;;;;;;;24.05;10.68;;;;;;;10.68;72.50;101397.98;1807757;79;21145;-60
2022/01/07 07:29:58;;;;;;;35.70;14.25;;;;;;;10.69;72.39;101408.91;1804836;79;21070;-60
2022/01/07 07:32:29;;;;;;;35.52;15.40;;;;;;;10.67;72.28;101414.67;1774239;81;21088;-60
2022/01/07 07:37:27;;;;;;;39.40;15.78;;;;;;;10.67;72.44;101417.31;1774501;79;21155;-61
2022/01/07 07:39:56;;;;;;;41.13;14.70;;;;;;;10.76;72.30;101418.83;1759766;81;21508;-61
2022/01/07 07:42:25;;;;;;;41.33;14.73;;;;;;;10.81;72.08;101423.05;1748722;81;21082;-60
2022/01/07 07:44:55;;;;;;;35.83;13.93;;;;;;;10.85;71.92;101428.24;1744855;82;21544;-61
2022/01/07 07:47:24;;;;;;;35.63;13.90;;;;;;;10.86;71.90;101424.68;1745482;82;21114;-60
2022/01/07 07:49:52;;;;;;;31.02;13.80;;;;;;;10.89;71.81;101428.09;1745280;82;21054;-60
2022/01/07 07:52:21;;;;;;;39.53;14.05;;;;;;;10.88;71.89;101421.55;1745374;82;21115;-60
2022/01/07 07:54:50;;;;;;;36.45;14.65;;;;;;;10.90;72.08;101419.72;1752715;82;21180;-60
2022/01/07 07:57:21;;;;;;;34.50;14.40;;;;;;;11.02;71.96;101419.37;1753600;82;21164;-60
2022/01/07 07:59:49;;;;;;;41.60;14.70;;;;;;;11.15;71.83;101416.77;1753587;82;21160;-60
2022/01/07 08:02:18;;;;;;;37.30;13.90;;;;;;;11.23;71.71;101419.16;1755212;81;21179;-61
2022/01/07 08:04:48;;;;;;;33.18;13.88;;;;;;;11.25;71.49;101416.48;1759464;81;21219;-60
2022/01/07 08:07:17;;;;;;;38.40;14.83;;;;;;;11.23;71.45;101420.94;1761885;81;21077;-61
2022/01/07 08:09:49;;;;;;;32.63;13.50;;;;;;;11.25;71.30;101418.69;1761903;81;21097;-60
2022/01/07 08:12:20;;;;;;;31.25;13.60;;;;;;;11.30;71.22;101423.80;1761948;81;21077;-60
2022/01/07 08:17:34;;;;;;;31.25;12.47;;;;;;;11.58;70.75;101414.55;1756542;81;21066;-60
2022/01/07 08:20:03;;;;;;;35.38;14.60;;;;;;;11.54;70.34;101420.37;1762012;81;21050;-61
2022/01/07 08:22:32;;;;;;;34.67;14.68;;;;;;;11.46;70.16;101425.05;1757787;81;21548;-60
2022/01/07 08:25:01;;;;;;;25.10;11.38;;;;;;;11.33;70.17;101425.03;1753707;81;21082;-61
2022/01/07 08:27:29;;;;;;;32.08;14.18;;;;;;;11.15;70.49;101427.77;1753708;82;21215;-65
2022/01/07 08:30:02;;;;;;;27.48;12.40;;;;;;;11.08;70.48;101431.03;1753675;82;21161;-65
2022/01/07 08:35:16;;;;;;;32.00;12.65;;;;;;;10.96;70.80;101433.59;1747021;82;21058;-64
2022/01/07 08:37:45;;;;;;;31.35;12.80;;;;;;;10.90;70.70;101434.22;1747564;82;21110;-62
2022/01/07 08:40:15;;;;;;;33.18;14.10;;;;;;;10.84;70.85;101437.89;1756684;81;21117;-61
2022/01/07 08:42:44;;;;;;;32.98;13.25;;;;;;;10.86;70.90;101437.85;1768680;80;21101;-62
2022/01/07 08:45:13;;;;;;;32.53;13.43;;;;;;;10.88;70.92;101442.19;1769193;81;21069;-61
2022/01/07 08:47:41;;;;;;;28.55;12.15;;;;;;;10.96;70.96;101444.13;1769272;81;21445;-61
2022/01/07 08:50:10;;;;;;;29.25;12.40;;;;;;;11.09;70.88;101443.31;1769112;81;21077;-63
2022/01/07 08:52:39;;;;;;;25.65;11.18;;;;;;;11.09;70.76;101448.59;1764937;80;21127;-61
2022/01/07 08:55:08;;;;;;;29.52;12.68;;;;;;;11.05;70.64;101454.87;1759897;80;21171;-61
2022/01/07 08:57:37;;;;;;;22.40;8.48;;;;;;;10.90;70.69;101450.02;1757954;81;21078;-61
2022/01/07 09:00:08;;;;;;;26.48;11.08;;;;;;;10.86;70.74;101448.39;1758823;81;21140;-60
2022/01/07 09:02:37;;;;;;;32.28;12.82;;;;;;;10.82;70.55;101448.47;1758065;80;21154;-62
2022/01/07 09:05:06;;;;;;;29.55;10.90;;;;;;;10.81;70.44;101459.94;1758473;80;21117;-60
2022/01/07 09:07:35;;;;;;;38.00;14.18;;;;;;;10.84;70.35;101454.16;1765504;80;21130;-60
2022/01/07 09:10:04;;;;;;;31.57;12.90;;;;;;;10.81;70.07;101452.49;1758482;80;21158;-60
2022/01/07 09:12:33;;;;;;;32.60;11.80;;;;;;;10.78;69.92;101452.11;1790964;80;21144;-59
2022/01/07 09:15:02;;;;;;;32.78;11.57;;;;;;;10.70;69.49;101461.16;1791010;80;21085;-63
2022/01/07 09:17:35;;;;;;;27.40;12.28;;;;;;;10.62;69.76;101457.39;1790839;80;21077;-59
2022/01/07 09:22:54;;;;;;;28.10;11.85;;;;;;;10.56;69.52;101466.33;1759330;80;21104;-63
2022/01/07 09:25:23;;;;;;;26.30;11.48;;;;;;;10.53;69.07;101470.81;1759388;81;21150;-62
2022/01/07 09:27:51;;;;;;;26.68;11.30;;;;;;;10.40;69.02;101480.38;1759175;81;21132;-63
2022/01/07 09:30:20;;;;;;;27.93;11.38;;;;;;;10.36;68.97;101477.84;1759305;81;21163;-63
2022/01/07 09:32:49;;;;;;;28.45;11.22;;;;;;;10.12;69.04;101485.89;1759274;81;21085;-63
2022/01/07 09:35:18;;;;;;;24.37;11.63;;;;;;;9.97;69.22;101485.83;1759245;80;21136;-63
2022/01/07 09:37:47;;;;;;;22.32;9.23;;;;;;;9.94;69.20;101484.15;1759375;81;21065;-63
2022/01/07 09:40:16;;;;;;;24.92;11.45;;;;;;;9.87;68.80;101489.14;1759187;80;21144;-63
2022/01/07 09:42:57;;;;;;;20.20;10.53;;;;;;;9.79;68.79;101492.39;1759270;81;21170;-63
2022/01/07 09:45:28;;;;;;;29.70;11.53;;;;;;;9.78;68.77;101499.89;1759939;80;21085;-62
2022/01/07 09:47:58;;;;;;;26.15;10.23;;;;;;;9.86;68.73;101496.61;1759414;81;21074;-62
2022/01/07 09:50:28;;;;;;;19.00;9.30;;;;;;;9.84;68.85;101497.95;1759287;81;21578;-62
2022/01/07 09:52:57;;;;;;;27.05;11.05;;;;;;;9.80;68.60;101502.88;1759375;81;21104;-62
2022/01/07 09:55:26;;;;;;;21.62;11.10;;;;;;;9.70;68.75;101505.75;1759250;81;21085;-63
2022/01/07 09:57:54;;;;;;;19.95;9.78;;;;;;;9.57;68.88;101513.95;1759296;81;21085;-62
2022/01/07 10:00:23;;;;;;;19.98;9.40;;;;;;;9.57;68.90;101512.63;1759308;80;21152;-63
2022/01/07 10:03:08;;;;;;;27.40;11.53;;;;;;;9.52;68.85;101518.44;1759362;81;21042;-62
2022/01/07 10:05:45;;;;;;;20.80;9.55;;;;;;;9.47;68.92;101537.38;1759270;80;21153;-62
2022/01/07 10:08:22;;;;;;;18.42;9.90;;;;;;;9.41;69.17;101525.70;1759653;79;21117;-62
2022/01/07 10:11:20;;;;;;;19.73;10.40;;;;;;;9.36;69.05;101520.52;1759288;81;21167;-62
2022/01/07 10:13:52;;;;;;;20.50;10.63;;;;;;;9.26;68.96;101531.69;1759219;81;21183;-63
2022/01/07 10:16:23;;;;;;;17.60;8.15;;;;;;;9.16;68.71;101528.81;1759233;81;21136;-62
2022/01/07 10:18:52;;;;;;;19.92;8.10;;;;;;;9.10;68.94;101528.95;1759229;81;21077;-63
2022/01/07 10:21:22;;;;;;;16.55;8.78;;;;;;;9.10;68.63;101528.09;1757706;80;21541;-63
2022/01/07 10:23:54;;;;;;;17.20;8.20;;;;;;;9.04;68.55;101529.09;1748604;82;21127;-61
2022/01/07 10:26:23;;;;;;;20.60;9.58;;;;;;;8.95;68.55;101533.21;1748775;80;21213;-62
2022/01/07 10:28:51;;;;;;;18.70;8.80;;;;;;;8.87;68.45;101539.47;1748596;82;21204;-62
2022/01/07 10:31:22;;;;;;;17.10;6.87;;;;;;;8.77;68.52;101537.91;1748606;82;21127;-61
2022/01/07 10:33:53;;;;;;;20.40;9.13;;;;;;;8.66;68.78;101545.12;1748583;82;21107;-62
2022/01/07 10:36:25;;;;;;;17.77;8.70;;;;;;;8.66;68.72;101550.37;1748531;82;21115;-63
2022/01/07 10:39:04;;;;;;;22.02;9.43;;;;;;;8.67;68.62;101549.48;1748410;80;21100;-62
2022/01/07 10:41:31;;;;;;;15.93;7.22;;;;;;;8.71;68.50;101544.59;1753741;80;21619;-62
2022/01/07 10:44:08;;;;;;;13.80;4.97;;;;;;;8.63;68.48;101549.09;1764030;81;21054;-64
2022/01/07 10:46:36;;;;;;;18.27;7.62;;;;;;;8.46;68.69;101552.03;1770248;80;21530;-64
2022/01/07 10:49:06;;;;;;;21.17;9.20;;;;;;;8.48;68.63;101556.38;1785022;80;21497;-64
2022/01/07 10:51:38;;;;;;;18.35;7.42;;;;;;;8.47;68.72;101559.02;1770304;80;21068;-64
2022/01/07 10:54:10;;;;;;;21.95;8.58;;;;;;;8.49;68.74;101558.09;1746529;82;21055;-64
2022/01/07 10:56:47;;;;;;;19.95;9.73;;;;;;;8.56;68.69;101563.22;1756934;81;21091;-63
2022/01/07 10:59:18;;;;;;;19.17;8.00;;;;;;;8.63;68.49;101570.99;1748513;82;21514;-64
2022/01/07 11:01:57;;;;;;;24.60;8.83;;;;;;;8.60;68.22;101569.72;1766109;80;21415;-64
2022/01/07 11:04:31;;;;;;;19.35;8.43;;;;;;;8.55;68.44;101572.01;1785160;80;21050;-64
2022/01/07 11:07:03;;;;;;;20.52;8.80;;;;;;;8.57;68.47;101578.95;1852935;76;21085;-65
2022/01/07 11:09:30;;;;;;;23.52;10.32;;;;;;;8.53;68.56;101581.67;1865522;77;21158;-67
2022/01/07 11:12:02;;;;;;;21.40;9.93;;;;;;;8.50;68.61;101587.40;1865616;76;21077;-66
2022/01/07 11:14:35;;;;;;;25.20;9.75;;;;;;;8.48;68.70;101584.36;1865776;77;21131;-65
2022/01/07 11:17:06;;;;;;;26.93;9.73;;;;;;;8.44;68.71;101588.80;1865689;77;21452;-60
2022/01/07 11:19:42;;;;;;;24.60;10.45;;;;;;;8.45;68.81;101581.81;1865779;77;21080;-62
2022/01/07 11:22:14;;;;;;;27.20;11.50;;;;;;;8.43;68.75;101588.39;1865688;77;21053;-62
2022/01/07 11:24:53;;;;;;;34.85;12.33;;;;;;;8.39;68.95;101591.05;1865781;77;21150;-62
2022/01/07 11:27:26;;;;;;;31.33;11.70;;;;;;;8.44;68.97;101597.98;1865412;76;21026;-63
2022/01/07 11:33:03;;;;;;;31.73;12.13;;;;;;;8.38;69.25;101601.14;1871659;76;21050;-63
2022/01/07 11:35:34;;;;;;;32.93;12.85;;;;;;;8.28;69.40;101605.22;1875058;76;21511;-61
2022/01/07 11:38:03;;;;;;;32.40;11.53;;;;;;;8.29;69.30;101607.39;1865601;77;21123;-63
2022/01/07 11:40:34;;;;;;;32.42;11.57;;;;;;;8.30;69.15;101615.70;1865651;77;21550;-64
2022/01/07 11:43:08;;;;;;;31.93;12.18;;;;;;;8.33;69.06;101619.56;1834811;78;21065;-63
2022/01/07 11:45:43;;;;;;;35.60;11.90;;;;;;;8.30;69.03;101626.19;1832103;78;21668;-63
2022/01/07 11:48:17;;;;;;;34.55;12.90;;;;;;;8.30;69.08;101626.19;1801093;80;21532;-62